sensor_id;sensor_type;location;lat;lon;timestamp;temperature;humidity
41547;DHT22;27271;45.412;10.852;2023-07-30T04:33:54;19.20;99.90
41547;DHT22;27271;45.412;10.852;2023-07-30T04:37:17;19.30;99.90
41547;DHT22;27271;45.412;10.852;2023-07-30T04:40:40;19.30;99.90
41547;DHT22;27271;45.412;10.852;2023-07-30T04:44:04;19.40;99.90
41547;DHT22;27271;45.412;10.852;2023-07-30T04:47:26;19.50;99.90
41547;DHT22;27271;45.412;10.852;2023-07-30T04:50:48;19.50;99.90
41547;DHT22;27271;45.412;10.852;2023-07-30T04:54:11;19.60;99.90
41547;DHT22;27271;45.412;10.852;2023-07-30T04:57:59;19.70;99.90
41547;DHT22;27271;45.412;10.852;2023-07-30T05:01:23;19.80;99.90
41547;DHT22;27271;45.412;10.852;2023-07-30T05:04:45;20.00;99.90
41547;DHT22;27271;45.412;10.852;2023-07-30T05:08:08;20.10;99.90
41547;DHT22;27271;45.412;10.852;2023-07-30T05:11:30;20.20;99.90
41547;DHT22;27271;45.412;10.852;2023-07-30T05:14:52;20.20;99.90
41547;DHT22;27271;45.412;10.852;2023-07-30T05:18:14;20.30;99.90
41547;DHT22;27271;45.412;10.852;2023-07-30T05:21:36;20.40;99.90
41547;DHT22;27271;45.412;10.852;2023-07-30T05:24:59;20.40;99.90
41547;DHT22;27271;45.412;10.852;2023-07-30T05:28:21;20.30;99.90
41547;DHT22;27271;45.412;10.852;2023-07-30T05:31:43;20.50;99.90
41547;DHT22;27271;45.412;10.852;2023-07-30T05:35:05;20.60;99.90
41547;DHT22;27271;45.412;10.852;2023-07-30T05:38:28;20.80;99.90
41547;DHT22;27271;45.412;10.852;2023-07-30T05:41:50;20.40;99.90
41547;DHT22;27271;45.412;10.852;2023-07-30T05:45:12;20.40;99.90
41547;DHT22;27271;45.412;10.852;2023-07-30T05:48:34;20.40;99.90
41547;DHT22;27271;45.412;10.852;2023-07-30T05:51:56;20.60;99.90
41547;DHT22;27271;45.412;10.852;2023-07-30T05:55:18;21.60;99.90
41547;DHT22;27271;45.412;10.852;2023-07-30T05:58:44;23.10;99.90
41547;DHT22;27271;45.412;10.852;2023-07-30T06:02:06;24.00;99.90
41547;DHT22;27271;45.412;10.852;2023-07-30T06:05:29;23.40;99.90
41547;DHT22;27271;45.412;10.852;2023-07-30T06:08:51;24.50;99.90
41547;DHT22;27271;45.412;10.852;2023-07-30T06:12:13;25.30;99.90
41547;DHT22;27271;45.412;10.852;2023-07-30T06:15:35;26.00;99.90
41547;DHT22;27271;45.412;10.852;2023-07-30T06:18:57;25.70;99.90
41547;DHT22;27271;45.412;10.852;2023-07-30T06:22:19;25.10;99.90
41547;DHT22;27271;45.412;10.852;2023-07-30T06:25:41;25.50;99.90
41547;DHT22;27271;45.412;10.852;2023-07-30T06:29:03;26.50;99.90
41547;DHT22;27271;45.412;10.852;2023-07-30T06:32:26;27.00;99.90
41547;DHT22;27271;45.412;10.852;2023-07-30T06:35:49;27.00;99.90
41547;DHT22;27271;45.412;10.852;2023-07-30T06:39:13;27.80;99.90
41547;DHT22;27271;45.412;10.852;2023-07-30T06:42:42;28.30;1.00
41547;DHT22;27271;45.412;10.852;2023-07-30T06:46:05;28.20;99.90
41547;DHT22;27271;45.412;10.852;2023-07-30T06:49:31;28.80;99.90
41547;DHT22;27271;45.412;10.852;2023-07-30T06:52:55;29.30;99.90
41547;DHT22;27271;45.412;10.852;2023-07-30T06:56:18;30.60;99.90
41547;DHT22;27271;45.412;10.852;2023-07-30T06:59:40;31.80;1.00
41547;DHT22;27271;45.412;10.852;2023-07-30T07:03:08;32.40;1.00
41547;DHT22;27271;45.412;10.852;2023-07-30T07:06:34;32.60;1.00
41547;DHT22;27271;45.412;10.852;2023-07-30T07:10:15;34.30;1.00
41547;DHT22;27271;45.412;10.852;2023-07-30T07:13:44;34.90;1.00
41547;DHT22;27271;45.412;10.852;2023-07-30T07:17:07;35.40;99.90
41547;DHT22;27271;45.412;10.852;2023-07-30T07:20:29;35.10;99.90
41547;DHT22;27271;45.412;10.852;2023-07-30T07:23:52;35.70;99.90
41547;DHT22;27271;45.412;10.852;2023-07-30T07:27:15;35.70;99.90
41547;DHT22;27271;45.412;10.852;2023-07-30T07:30:38;35.60;99.90
41547;DHT22;27271;45.412;10.852;2023-07-30T07:34:04;36.00;99.90
41547;DHT22;27271;45.412;10.852;2023-07-30T07:37:26;36.30;99.90
41547;DHT22;27271;45.412;10.852;2023-07-30T07:40:51;36.80;99.90
41547;DHT22;27271;45.412;10.852;2023-07-30T07:44:34;37.20;99.90
41547;DHT22;27271;45.412;10.852;2023-07-30T07:47:57;37.10;99.90
41547;DHT22;27271;45.412;10.852;2023-07-30T07:51:19;36.90;99.90
41547;DHT22;27271;45.412;10.852;2023-07-30T07:54:41;36.80;99.90
41547;DHT22;27271;45.412;10.852;2023-07-30T07:58:04;36.90;99.90
41547;DHT22;27271;45.412;10.852;2023-07-30T08:01:26;37.70;99.90
41547;DHT22;27271;45.412;10.852;2023-07-30T08:04:48;37.20;99.90
41547;DHT22;27271;45.412;10.852;2023-07-30T08:08:10;36.90;99.90
41547;DHT22;27271;45.412;10.852;2023-07-30T08:11:34;36.90;99.90
41547;DHT22;27271;45.412;10.852;2023-07-30T08:14:57;36.70;99.90
41547;DHT22;27271;45.412;10.852;2023-07-30T08:18:21;36.80;99.90
41547;DHT22;27271;45.412;10.852;2023-07-30T08:21:43;36.10;99.90
41547;DHT22;27271;45.412;10.852;2023-07-30T08:25:05;36.30;99.90
41547;DHT22;27271;45.412;10.852;2023-07-30T08:28:28;36.70;99.90
41547;DHT22;27271;45.412;10.852;2023-07-30T08:31:50;37.50;99.90
41547;DHT22;27271;45.412;10.852;2023-07-30T08:35:12;37.60;99.90
41547;DHT22;27271;45.412;10.852;2023-07-30T08:38:34;37.50;99.90
41547;DHT22;27271;45.412;10.852;2023-07-30T08:41:56;37.80;99.90
41547;DHT22;27271;45.412;10.852;2023-07-30T08:45:20;38.20;99.90
41547;DHT22;27271;45.412;10.852;2023-07-30T08:48:42;37.70;99.90
41547;DHT22;27271;45.412;10.852;2023-07-30T08:52:09;37.90;99.90
41547;DHT22;27271;45.412;10.852;2023-07-30T08:55:33;38.30;99.90
41547;DHT22;27271;45.412;10.852;2023-07-30T08:58:56;37.70;99.90
41547;DHT22;27271;45.412;10.852;2023-07-30T09:02:30;38.40;99.90
41547;DHT22;27271;45.412;10.852;2023-07-30T09:05:52;39.20;99.90
41547;DHT22;27271;45.412;10.852;2023-07-30T09:09:20;39.20;99.90
41547;DHT22;27271;45.412;10.852;2023-07-30T09:12:46;39.40;99.90
41547;DHT22;27271;45.412;10.852;2023-07-30T09:16:16;39.20;99.90
41547;DHT22;27271;45.412;10.852;2023-07-30T09:19:41;39.40;99.90
41547;DHT22;27271;45.412;10.852;2023-07-30T09:23:05;39.40;99.90
41547;DHT22;27271;45.412;10.852;2023-07-30T09:26:29;38.70;99.90
41547;DHT22;27271;45.412;10.852;2023-07-30T09:29:53;38.70;99.90
41547;DHT22;27271;45.412;10.852;2023-07-30T09:33:18;38.80;99.90
41547;DHT22;27271;45.412;10.852;2023-07-30T09:36:43;38.80;99.90
41547;DHT22;27271;45.412;10.852;2023-07-30T09:40:10;38.40;99.90
41547;DHT22;27271;45.412;10.852;2023-07-30T09:43:35;38.40;99.90
41547;DHT22;27271;45.412;10.852;2023-07-30T09:47:00;38.60;99.90
41547;DHT22;27271;45.412;10.852;2023-07-30T09:50:26;39.00;99.90
41547;DHT22;27271;45.412;10.852;2023-07-30T09:53:54;38.60;99.90
41547;DHT22;27271;45.412;10.852;2023-07-30T09:57:42;38.40;99.90
41547;DHT22;27271;45.412;10.852;2023-07-30T10:01:54;38.30;99.90
41547;DHT22;27271;45.412;10.852;2023-07-30T10:05:39;38.20;99.90
41547;DHT22;27271;45.412;10.852;2023-07-30T10:09:30;37.50;99.90
41547;DHT22;27271;45.412;10.852;2023-07-30T10:13:47;36.90;99.90
41547;DHT22;27271;45.412;10.852;2023-07-30T10:17:17;37.20;99.90
41547;DHT22;27271;45.412;10.852;2023-07-30T10:20:39;37.40;99.90
41547;DHT22;27271;45.412;10.852;2023-07-30T10:24:03;36.90;99.90
41547;DHT22;27271;45.412;10.852;2023-07-30T10:27:35;37.40;99.90
41547;DHT22;27271;45.412;10.852;2023-07-30T10:31:08;37.10;99.90
41547;DHT22;27271;45.412;10.852;2023-07-30T10:34:47;37.00;99.90
41547;DHT22;27271;45.412;10.852;2023-07-30T10:38:34;37.30;99.90
41547;DHT22;27271;45.412;10.852;2023-07-30T10:41:57;36.80;99.90
41547;DHT22;27271;45.412;10.852;2023-07-30T10:45:26;36.30;99.90
41547;DHT22;27271;45.412;10.852;2023-07-30T10:48:48;36.30;99.90
41547;DHT22;27271;45.412;10.852;2023-07-30T10:52:11;36.60;99.90
41547;DHT22;27271;45.412;10.852;2023-07-30T10:55:33;37.00;99.90
41547;DHT22;27271;45.412;10.852;2023-07-30T10:58:56;37.00;99.90
41547;DHT22;27271;45.412;10.852;2023-07-30T11:02:23;36.90;99.90
41547;DHT22;27271;45.412;10.852;2023-07-30T11:06:34;36.90;99.90
41547;DHT22;27271;45.412;10.852;2023-07-30T11:10:46;37.10;99.90
41547;DHT22;27271;45.412;10.852;2023-07-30T11:14:24;37.40;99.90
41547;DHT22;27271;45.412;10.852;2023-07-30T11:17:51;37.40;99.90
41547;DHT22;27271;45.412;10.852;2023-07-30T11:21:17;37.50;99.90
41547;DHT22;27271;45.412;10.852;2023-07-30T11:24:39;37.20;99.90
41547;DHT22;27271;45.412;10.852;2023-07-30T11:28:02;35.90;99.90
41547;DHT22;27271;45.412;10.852;2023-07-30T11:31:24;35.30;99.90
41547;DHT22;27271;45.412;10.852;2023-07-30T11:34:49;35.10;99.90
41547;DHT22;27271;45.412;10.852;2023-07-30T11:38:15;35.00;99.90
41547;DHT22;27271;45.412;10.852;2023-07-30T11:41:39;34.90;99.90
41547;DHT22;27271;45.412;10.852;2023-07-30T11:45:21;34.80;99.90
41547;DHT22;27271;45.412;10.852;2023-07-30T11:48:45;35.30;99.90
41547;DHT22;27271;45.412;10.852;2023-07-30T11:52:10;34.90;99.90
41547;DHT22;27271;45.412;10.852;2023-07-30T11:55:39;34.70;99.90
41547;DHT22;27271;45.412;10.852;2023-07-30T11:59:07;34.20;99.90
41547;DHT22;27271;45.412;10.852;2023-07-30T12:02:30;33.80;99.90
41547;DHT22;27271;45.412;10.852;2023-07-30T12:05:52;34.10;99.90
41547;DHT22;27271;45.412;10.852;2023-07-30T12:09:21;34.40;99.90
41547;DHT22;27271;45.412;10.852;2023-07-30T12:12:51;34.50;99.90
41547;DHT22;27271;45.412;10.852;2023-07-30T12:16:14;34.50;99.90
41547;DHT22;27271;45.412;10.852;2023-07-30T12:19:41;33.90;99.90
41547;DHT22;27271;45.412;10.852;2023-07-30T12:23:03;33.70;99.90
41547;DHT22;27271;45.412;10.852;2023-07-30T12:26:25;34.10;99.90
41547;DHT22;27271;45.412;10.852;2023-07-30T12:29:48;34.40;99.90
41547;DHT22;27271;45.412;10.852;2023-07-30T12:33:10;34.90;99.90
41547;DHT22;27271;45.412;10.852;2023-07-30T12:36:32;35.30;99.90
41547;DHT22;27271;45.412;10.852;2023-07-30T12:39:54;35.20;99.90
41547;DHT22;27271;45.412;10.852;2023-07-30T12:43:16;34.90;99.90
41547;DHT22;27271;45.412;10.852;2023-07-30T12:46:41;34.70;99.90
41547;DHT22;27271;45.412;10.852;2023-07-30T12:50:03;34.20;99.90
41547;DHT22;27271;45.412;10.852;2023-07-30T12:53:26;33.30;99.90
41547;DHT22;27271;45.412;10.852;2023-07-30T12:56:48;33.40;99.90
41547;DHT22;27271;45.412;10.852;2023-07-30T13:00:10;33.20;99.90
41547;DHT22;27271;45.412;10.852;2023-07-30T13:03:33;33.30;99.90
41547;DHT22;27271;45.412;10.852;2023-07-30T13:06:55;33.80;99.90
41547;DHT22;27271;45.412;10.852;2023-07-30T13:10:17;34.10;99.90
41547;DHT22;27271;45.412;10.852;2023-07-30T13:13:39;34.30;99.90
41547;DHT22;27271;45.412;10.852;2023-07-30T13:17:01;34.50;99.90
41547;DHT22;27271;45.412;10.852;2023-07-30T13:20:23;34.40;99.90
41547;DHT22;27271;45.412;10.852;2023-07-30T13:23:45;34.40;99.90
41547;DHT22;27271;45.412;10.852;2023-07-30T13:27:08;34.40;99.90
41547;DHT22;27271;45.412;10.852;2023-07-30T13:30:30;34.50;99.90
41547;DHT22;27271;45.412;10.852;2023-07-30T13:33:52;34.40;99.90
41547;DHT22;27271;45.412;10.852;2023-07-30T13:37:14;34.50;99.90
41547;DHT22;27271;45.412;10.852;2023-07-30T13:40:36;34.30;99.90
41547;DHT22;27271;45.412;10.852;2023-07-30T13:43:58;34.20;99.90
41547;DHT22;27271;45.412;10.852;2023-07-30T13:47:20;34.30;99.90
41547;DHT22;27271;45.412;10.852;2023-07-30T13:50:43;34.40;99.90
41547;DHT22;27271;45.412;10.852;2023-07-30T13:54:05;34.10;99.90
41547;DHT22;27271;45.412;10.852;2023-07-30T13:57:30;34.20;99.90
41547;DHT22;27271;45.412;10.852;2023-07-30T14:00:53;34.30;99.90
41547;DHT22;27271;45.412;10.852;2023-07-30T14:04:16;34.20;99.90
41547;DHT22;27271;45.412;10.852;2023-07-30T14:07:38;33.60;99.90
41547;DHT22;27271;45.412;10.852;2023-07-30T14:11:02;33.60;99.90
41547;DHT22;27271;45.412;10.852;2023-07-30T14:14:24;33.70;99.90
41547;DHT22;27271;45.412;10.852;2023-07-30T14:17:48;33.90;99.90
41547;DHT22;27271;45.412;10.852;2023-07-30T14:21:10;33.90;99.90
41547;DHT22;27271;45.412;10.852;2023-07-30T14:24:33;33.50;99.90
41547;DHT22;27271;45.412;10.852;2023-07-30T14:27:56;33.30;99.90
41547;DHT22;27271;45.412;10.852;2023-07-30T14:31:18;33.40;99.90
41547;DHT22;27271;45.412;10.852;2023-07-30T14:34:40;33.70;99.90
41547;DHT22;27271;45.412;10.852;2023-07-30T14:38:02;33.60;99.90
41547;DHT22;27271;45.412;10.852;2023-07-30T14:41:24;33.30;99.90
41547;DHT22;27271;45.412;10.852;2023-07-30T14:44:46;33.40;99.90
41547;DHT22;27271;45.412;10.852;2023-07-30T14:48:08;33.80;99.90
41547;DHT22;27271;45.412;10.852;2023-07-30T14:51:30;33.90;99.90
41547;DHT22;27271;45.412;10.852;2023-07-30T14:54:52;33.80;99.90
41547;DHT22;27271;45.412;10.852;2023-07-30T14:58:14;33.90;99.90
41547;DHT22;27271;45.412;10.852;2023-07-30T15:01:37;33.90;99.90
41547;DHT22;27271;45.412;10.852;2023-07-30T15:04:59;33.70;99.90
41547;DHT22;27271;45.412;10.852;2023-07-30T15:08:21;33.40;99.90
41547;DHT22;27271;45.412;10.852;2023-07-30T15:11:43;33.20;99.90
41547;DHT22;27271;45.412;10.852;2023-07-30T15:15:06;33.50;99.90
41547;DHT22;27271;45.412;10.852;2023-07-30T15:18:28;33.40;99.90
41547;DHT22;27271;45.412;10.852;2023-07-30T15:21:50;33.40;99.90
41547;DHT22;27271;45.412;10.852;2023-07-30T15:25:12;33.20;99.90
41547;DHT22;27271;45.412;10.852;2023-07-30T15:28:34;33.30;99.90
41547;DHT22;27271;45.412;10.852;2023-07-30T15:31:56;32.80;99.90
41547;DHT22;27271;45.412;10.852;2023-07-30T15:35:19;32.70;99.90
41547;DHT22;27271;45.412;10.852;2023-07-30T15:38:41;32.40;99.90
41547;DHT22;27271;45.412;10.852;2023-07-30T15:42:03;32.40;99.90
41547;DHT22;27271;45.412;10.852;2023-07-30T15:45:25;32.60;99.90
41547;DHT22;27271;45.412;10.852;2023-07-30T15:48:48;32.90;99.90
41547;DHT22;27271;45.412;10.852;2023-07-30T15:52:10;33.00;99.90
41547;DHT22;27271;45.412;10.852;2023-07-30T15:55:32;33.10;99.90
41547;DHT22;27271;45.412;10.852;2023-07-30T15:58:55;33.30;99.90
41547;DHT22;27271;45.412;10.852;2023-07-30T16:02:18;33.20;99.90
41547;DHT22;27271;45.412;10.852;2023-07-30T16:05:46;33.10;99.90
41547;DHT22;27271;45.412;10.852;2023-07-30T16:09:09;33.20;99.90
41547;DHT22;27271;45.412;10.852;2023-07-30T16:12:31;32.60;99.90
41547;DHT22;27271;45.412;10.852;2023-07-30T16:15:53;31.90;99.90
41547;DHT22;27271;45.412;10.852;2023-07-30T16:19:15;31.10;99.90
41547;DHT22;27271;45.412;10.852;2023-07-30T16:22:39;31.20;99.90
41547;DHT22;27271;45.412;10.852;2023-07-30T16:26:02;31.60;99.90
41547;DHT22;27271;45.412;10.852;2023-07-30T16:29:24;32.00;99.90
41547;DHT22;27271;45.412;10.852;2023-07-30T16:32:46;31.60;99.90
41547;DHT22;27271;45.412;10.852;2023-07-30T16:36:08;31.70;99.90
41547;DHT22;27271;45.412;10.852;2023-07-30T16:39:30;31.90;99.90
41547;DHT22;27271;45.412;10.852;2023-07-30T16:42:52;32.20;99.90
41547;DHT22;27271;45.412;10.852;2023-07-30T16:46:14;32.10;99.90
41547;DHT22;27271;45.412;10.852;2023-07-30T16:49:37;31.70;99.90
41547;DHT22;27271;45.412;10.852;2023-07-30T16:52:59;31.70;99.90
41547;DHT22;27271;45.412;10.852;2023-07-30T16:56:21;31.90;99.90
41547;DHT22;27271;45.412;10.852;2023-07-30T16:59:43;32.00;99.90
41547;DHT22;27271;45.412;10.852;2023-07-30T17:03:06;31.70;99.90
41547;DHT22;27271;45.412;10.852;2023-07-30T17:06:29;31.60;99.90
41547;DHT22;27271;45.412;10.852;2023-07-30T17:09:51;31.20;99.90
41547;DHT22;27271;45.412;10.852;2023-07-30T17:13:13;30.80;99.90
41547;DHT22;27271;45.412;10.852;2023-07-30T17:16:35;30.50;99.90
41547;DHT22;27271;45.412;10.852;2023-07-30T17:19:57;30.40;99.90
41547;DHT22;27271;45.412;10.852;2023-07-30T17:23:22;30.70;99.90
41547;DHT22;27271;45.412;10.852;2023-07-30T17:26:44;30.80;99.90
41547;DHT22;27271;45.412;10.852;2023-07-30T17:30:06;30.80;99.90
41547;DHT22;27271;45.412;10.852;2023-07-30T17:33:28;30.90;99.90
41547;DHT22;27271;45.412;10.852;2023-07-30T17:36:50;30.80;1.00
41547;DHT22;27271;45.412;10.852;2023-07-30T17:40:13;30.80;99.90
41547;DHT22;27271;45.412;10.852;2023-07-30T17:43:41;30.60;1.00
41547;DHT22;27271;45.412;10.852;2023-07-30T17:47:20;30.30;1.00
41547;DHT22;27271;45.412;10.852;2023-07-30T17:51:03;30.10;1.00
41547;DHT22;27271;45.412;10.852;2023-07-30T17:55:09;29.50;1.00
41547;DHT22;27271;45.412;10.852;2023-07-30T17:58:34;29.10;1.00
41547;DHT22;27271;45.412;10.852;2023-07-30T18:01:56;28.80;1.00
41547;DHT22;27271;45.412;10.852;2023-07-30T18:05:19;28.50;1.00
41547;DHT22;27271;45.412;10.852;2023-07-30T18:08:44;28.10;1.00
41547;DHT22;27271;45.412;10.852;2023-07-30T18:12:06;27.90;1.00
41547;DHT22;27271;45.412;10.852;2023-07-30T18:15:28;27.80;1.00
41547;DHT22;27271;45.412;10.852;2023-07-30T18:18:50;27.70;1.00
41547;DHT22;27271;45.412;10.852;2023-07-30T18:22:13;27.70;1.00
41547;DHT22;27271;45.412;10.852;2023-07-30T18:25:35;27.50;1.00
41547;DHT22;27271;45.412;10.852;2023-07-30T18:28:58;27.40;1.00
41547;DHT22;27271;45.412;10.852;2023-07-30T18:32:20;27.20;1.00
41547;DHT22;27271;45.412;10.852;2023-07-30T18:35:44;27.10;1.00
41547;DHT22;27271;45.412;10.852;2023-07-30T18:39:06;27.10;1.00
41547;DHT22;27271;45.412;10.852;2023-07-30T18:42:28;27.00;1.00
41547;DHT22;27271;45.412;10.852;2023-07-30T18:45:50;26.80;1.00
41547;DHT22;27271;45.412;10.852;2023-07-30T18:49:13;26.60;1.00
41547;DHT22;27271;45.412;10.852;2023-07-30T18:52:36;26.50;1.00
41547;DHT22;27271;45.412;10.852;2023-07-30T18:56:20;26.40;1.00
41547;DHT22;27271;45.412;10.852;2023-07-30T19:00:04;26.50;1.00
41547;DHT22;27271;45.412;10.852;2023-07-30T19:04:03;26.50;1.00
41547;DHT22;27271;45.412;10.852;2023-07-30T19:07:33;26.50;1.00
41547;DHT22;27271;45.412;10.852;2023-07-30T19:11:06;26.40;8.30
41547;DHT22;27271;45.412;10.852;2023-07-30T19:14:59;26.30;22.00
41547;DHT22;27271;45.412;10.852;2023-07-30T19:18:47;26.20;50.70
41547;DHT22;27271;45.412;10.852;2023-07-30T19:22:20;26.10;47.50
41547;DHT22;27271;45.412;10.852;2023-07-30T19:26:03;26.00;40.00
41547;DHT22;27271;45.412;10.852;2023-07-30T19:29:32;26.00;20.30
41547;DHT22;27271;45.412;10.852;2023-07-30T19:33:00;25.80;51.00
41547;DHT22;27271;45.412;10.852;2023-07-30T19:36:22;25.80;67.30
41547;DHT22;27271;45.412;10.852;2023-07-30T19:39:46;25.70;57.50
41547;DHT22;27271;45.412;10.852;2023-07-30T19:43:22;25.70;69.70
41547;DHT22;27271;45.412;10.852;2023-07-30T19:47:35;25.60;55.90
41547;DHT22;27271;45.412;10.852;2023-07-30T19:51:16;25.60;58.30
41547;DHT22;27271;45.412;10.852;2023-07-30T19:54:50;25.50;48.90
41547;DHT22;27271;45.412;10.852;2023-07-30T20:07:58;25.20;99.90
41547;DHT22;27271;45.412;10.852;2023-07-30T20:11:21;25.00;99.90
41547;DHT22;27271;45.412;10.852;2023-07-30T20:14:47;24.90;99.90
41547;DHT22;27271;45.412;10.852;2023-07-30T20:18:10;24.90;99.90
41547;DHT22;27271;45.412;10.852;2023-07-30T20:21:32;24.90;99.90
41547;DHT22;27271;45.412;10.852;2023-07-30T20:24:54;24.70;99.90
41547;DHT22;27271;45.412;10.852;2023-07-30T20:28:16;24.70;99.90
41547;DHT22;27271;45.412;10.852;2023-07-30T20:31:38;24.60;99.90
41547;DHT22;27271;45.412;10.852;2023-07-30T20:35:00;24.50;99.90
41547;DHT22;27271;45.412;10.852;2023-07-30T20:38:25;24.50;99.90
41547;DHT22;27271;45.412;10.852;2023-07-30T20:41:47;24.30;99.90
41547;DHT22;27271;45.412;10.852;2023-07-30T20:45:10;24.20;99.90
41547;DHT22;27271;45.412;10.852;2023-07-30T20:48:32;24.20;99.90
41547;DHT22;27271;45.412;10.852;2023-07-30T20:51:59;24.20;99.90
41547;DHT22;27271;45.412;10.852;2023-07-30T20:55:21;24.20;99.90
41547;DHT22;27271;45.412;10.852;2023-07-30T20:58:43;24.20;99.90
41547;DHT22;27271;45.412;10.852;2023-07-30T21:02:06;24.10;99.90
41547;DHT22;27271;45.412;10.852;2023-07-30T21:05:30;24.00;99.90
41547;DHT22;27271;45.412;10.852;2023-07-30T21:08:54;24.00;99.90
41547;DHT22;27271;45.412;10.852;2023-07-30T21:12:18;24.00;99.90
41547;DHT22;27271;45.412;10.852;2023-07-30T21:15:45;23.90;99.90
41547;DHT22;27271;45.412;10.852;2023-07-30T21:19:09;23.90;99.90
41547;DHT22;27271;45.412;10.852;2023-07-30T21:22:31;23.80;99.90
41547;DHT22;27271;45.412;10.852;2023-07-30T21:25:54;23.90;99.90
41547;DHT22;27271;45.412;10.852;2023-07-30T21:29:16;23.90;99.90
41547;DHT22;27271;45.412;10.852;2023-07-30T21:32:38;24.00;99.90
41547;DHT22;27271;45.412;10.852;2023-07-30T21:36:02;24.00;99.90
41547;DHT22;27271;45.412;10.852;2023-07-30T21:39:24;24.00;99.90
41547;DHT22;27271;45.412;10.852;2023-07-30T21:42:47;24.00;99.90
41547;DHT22;27271;45.412;10.852;2023-07-30T21:46:09;24.00;99.90
41547;DHT22;27271;45.412;10.852;2023-07-30T21:49:31;23.90;99.90
41547;DHT22;27271;45.412;10.852;2023-07-30T21:52:54;23.90;99.90
41547;DHT22;27271;45.412;10.852;2023-07-30T21:56:16;23.90;99.90
41547;DHT22;27271;45.412;10.852;2023-07-30T21:59:38;23.80;99.90
41547;DHT22;27271;45.412;10.852;2023-07-30T22:03:00;23.80;99.90
41547;DHT22;27271;45.412;10.852;2023-07-30T22:06:22;23.80;99.90
41547;DHT22;27271;45.412;10.852;2023-07-30T22:09:45;23.80;99.90
41547;DHT22;27271;45.412;10.852;2023-07-30T22:13:08;23.80;99.90
41547;DHT22;27271;45.412;10.852;2023-07-30T22:16:30;23.70;99.90
41547;DHT22;27271;45.412;10.852;2023-07-30T22:19:52;23.60;99.90
41547;DHT22;27271;45.412;10.852;2023-07-30T22:23:14;23.60;99.90
41547;DHT22;27271;45.412;10.852;2023-07-30T22:26:36;23.60;99.90
41547;DHT22;27271;45.412;10.852;2023-07-30T22:29:59;23.50;99.90
